createdAt,value
2019-02-02T00:01:39.274Z,-0.50
2019-02-02T00:04:09.380Z,-0.50
2019-02-02T00:06:40.947Z,-0.40
2019-02-02T00:09:11.575Z,-0.40
2019-02-02T00:11:44.235Z,-0.40
2019-02-02T00:14:14.266Z,-0.40
2019-02-02T00:16:44.578Z,-0.40
2019-02-02T00:19:17.609Z,-0.40
2019-02-02T00:21:47.599Z,-0.40
2019-02-02T00:24:18.896Z,-0.40
2019-02-02T00:26:48.833Z,-0.30
2019-02-02T00:29:18.674Z,-0.30
2019-02-02T00:31:49.363Z,-0.30
2019-02-02T00:34:19.136Z,-0.30
2019-02-02T00:36:49.028Z,-0.20
2019-02-02T00:39:19.021Z,-0.30
2019-02-02T00:41:49.408Z,-0.20
2019-02-02T00:44:19.345Z,-0.20
2019-02-02T00:46:49.740Z,-0.20
2019-02-02T00:49:20.095Z,-0.30
2019-02-02T00:51:49.998Z,-0.30
2019-02-02T00:54:20.086Z,-0.30
2019-02-02T00:56:50.350Z,-0.30
2019-02-02T00:59:20.196Z,-0.30
2019-02-02T01:01:50.217Z,-0.40
2019-02-02T01:04:50.673Z,-0.40
2019-02-02T01:07:21.106Z,-0.40
2019-02-02T01:09:50.934Z,-0.40
2019-02-02T01:12:21.331Z,-0.40
2019-02-02T01:14:51.279Z,-0.40
2019-02-02T01:17:21.155Z,-0.40
2019-02-02T01:19:51.321Z,-0.40
2019-02-02T01:22:21.223Z,-0.50
2019-02-02T01:24:51.134Z,-0.40
2019-02-02T01:27:20.942Z,-0.40
2019-02-02T01:29:51.526Z,-0.50
2019-02-02T01:32:21.406Z,-0.40
2019-02-02T01:34:52.556Z,-0.30
2019-02-02T01:37:22.393Z,-0.30
2019-02-02T01:40:31.451Z,-0.30
2019-02-02T01:43:01.256Z,-0.30
2019-02-02T01:45:31.215Z,-0.40
2019-02-02T01:48:01.084Z,-0.40
2019-02-02T01:50:31.190Z,-0.40
2019-02-02T01:53:01.029Z,-0.40
2019-02-02T01:55:35.875Z,-0.50
2019-02-02T01:58:15.962Z,-0.40
2019-02-02T02:00:39.348Z,-0.40
2019-02-02T02:03:09.665Z,-0.40
2019-02-02T02:05:39.488Z,-0.30
2019-02-02T02:08:10.005Z,-0.30
2019-02-02T02:10:40.016Z,-0.30
2019-02-02T02:13:10.101Z,-0.30
2019-02-02T02:15:40.050Z,-0.30
2019-02-02T02:18:09.975Z,-0.20
2019-02-02T02:20:40.220Z,-0.20
2019-02-02T02:23:10.116Z,-0.20
2019-02-02T02:25:39.914Z,-0.20
2019-02-02T02:28:10.170Z,-0.10
2019-02-02T02:30:40.055Z,-0.10
2019-02-02T02:33:09.920Z,0.00
2019-02-02T02:35:41.115Z,0.00
2019-02-02T02:38:10.989Z,0.00
2019-02-02T02:40:40.844Z,-0.10
2019-02-02T02:43:10.880Z,-0.10
2019-02-02T02:45:40.817Z,-0.10
2019-02-02T02:48:13.453Z,-0.10
2019-02-02T02:50:43.348Z,-0.10
2019-02-02T02:53:13.189Z,0.00
2019-02-02T02:55:43.021Z,0.00
2019-02-02T02:58:13.302Z,0.00
2019-02-02T03:00:43.224Z,0.00
2019-02-02T03:03:16.477Z,0.10
2019-02-02T03:05:49.295Z,0.10
2019-02-02T03:08:23.289Z,0.10
2019-02-02T03:10:53.206Z,0.10
2019-02-02T03:13:23.408Z,0.10
2019-02-02T03:15:53.510Z,0.10
2019-02-02T03:18:23.402Z,0.10
2019-02-02T03:20:54.019Z,0.10
2019-02-02T03:23:24.531Z,0.10
2019-02-02T03:25:54.319Z,0.10
2019-02-02T03:28:24.479Z,0.10
2019-02-02T03:30:57.313Z,0.10
2019-02-02T03:33:27.334Z,0.10
2019-02-02T03:35:57.446Z,0.20
2019-02-02T03:38:27.978Z,0.20
2019-02-02T03:41:00.223Z,0.20
2019-02-02T03:43:30.263Z,0.30
2019-02-02T03:46:00.087Z,0.30
2019-02-02T03:48:29.888Z,0.40
2019-02-02T03:50:59.804Z,0.40
2019-02-02T03:53:30.300Z,0.40
2019-02-02T03:56:00.064Z,0.40
2019-02-02T03:58:29.906Z,0.40
2019-02-02T04:01:13.325Z,0.40
2019-02-02T04:03:43.263Z,0.40
2019-02-02T04:06:13.080Z,0.40
2019-02-02T04:08:43.460Z,0.50
2019-02-02T04:11:13.605Z,0.40
2019-02-02T04:13:43.692Z,0.40
2019-02-02T04:16:13.944Z,0.40
2019-02-02T04:18:44.358Z,0.40
2019-02-02T04:21:14.284Z,0.40
2019-02-02T04:23:44.757Z,0.50
2019-02-02T04:26:14.554Z,0.40
2019-02-02T04:28:44.343Z,0.40
2019-02-02T04:31:17.535Z,0.50
2019-02-02T04:33:47.372Z,0.50
2019-02-02T04:36:17.422Z,0.40
2019-02-02T04:38:48.683Z,0.50
2019-02-02T04:41:19.148Z,0.40
2019-02-02T04:43:48.970Z,0.50
2019-02-02T04:46:18.824Z,0.40
2019-02-02T04:48:48.629Z,0.40
2019-02-02T04:51:18.444Z,0.40
2019-02-02T04:53:48.359Z,0.40
2019-02-02T04:56:18.909Z,0.40
2019-02-02T04:58:48.649Z,0.40
2019-02-02T05:01:18.602Z,0.40
2019-02-02T05:03:49.560Z,0.30
2019-02-02T05:06:20.196Z,0.40
2019-02-02T05:08:50.073Z,0.40
2019-02-02T05:11:20.326Z,0.40
2019-02-02T05:13:50.152Z,0.40
2019-02-02T05:16:20.218Z,0.40
2019-02-02T05:18:50.295Z,0.40
2019-02-02T05:21:20.268Z,0.40
2019-02-02T05:23:50.128Z,0.50
2019-02-02T05:26:20.248Z,0.50
2019-02-02T05:28:51.447Z,0.40
2019-02-02T05:31:21.925Z,0.50
2019-02-02T05:33:53.802Z,0.50
2019-02-02T05:36:23.860Z,0.40
2019-02-02T05:39:00.525Z,0.40
2019-02-02T05:41:58.289Z,0.40
2019-02-02T05:44:28.162Z,0.50
2019-02-02T05:46:58.344Z,0.50
2019-02-02T05:49:28.225Z,0.50
2019-02-02T05:51:58.299Z,0.60
2019-02-02T05:54:30.156Z,0.60
2019-02-02T05:57:10.533Z,0.60
2019-02-02T05:59:52.929Z,0.60
2019-02-02T06:03:00.464Z,0.60
2019-02-02T06:05:41.224Z,0.60
2019-02-02T06:08:13.482Z,0.60
2019-02-02T06:10:43.341Z,0.60
2019-02-02T06:17:20.929Z,0.50
2019-02-02T06:19:51.269Z,0.60
2019-02-02T06:25:24.675Z,0.60
2019-02-02T06:27:55.387Z,0.50
2019-02-02T06:30:25.934Z,0.50
2019-02-02T06:32:57.222Z,0.50
2019-02-02T06:35:27.478Z,0.50
2019-02-02T06:38:01.522Z,0.50
2019-02-02T06:40:31.479Z,0.60
2019-02-02T06:43:02.208Z,0.60
2019-02-02T06:45:34.669Z,0.60
2019-02-02T06:48:05.070Z,0.60
2019-02-02T06:50:36.087Z,0.60
2019-02-02T06:53:12.262Z,0.70
2019-02-02T06:55:42.169Z,0.70
2019-02-02T06:58:12.076Z,0.70
2019-02-02T07:00:46.433Z,0.70
2019-02-02T07:03:16.302Z,0.70
2019-02-02T07:05:46.217Z,0.70
2019-02-02T07:08:16.504Z,0.70
2019-02-02T07:10:46.905Z,0.70
2019-02-02T07:13:20.291Z,0.70
2019-02-02T07:15:59.458Z,0.70
2019-02-02T07:18:31.387Z,0.70
2019-02-02T07:21:01.385Z,0.70
2019-02-02T07:23:32.971Z,0.70
2019-02-02T07:26:02.840Z,0.80
2019-02-02T07:28:40.407Z,0.80
2019-02-02T07:31:10.753Z,0.80
2019-02-02T07:33:42.866Z,0.80
2019-02-02T07:36:12.789Z,0.80
2019-02-02T07:38:44.617Z,0.80
2019-02-02T07:41:20.264Z,0.80
2019-02-02T07:43:55.165Z,0.80
2019-02-02T07:46:29.820Z,0.80
2019-02-02T07:49:04.523Z,0.90
2019-02-02T07:51:34.369Z,0.90
2019-02-02T07:54:05.065Z,0.90
2019-02-02T07:56:35.180Z,0.90
2019-02-02T07:59:05.564Z,0.90
2019-02-02T08:01:39.307Z,0.90
2019-02-02T08:04:09.529Z,1.00
2019-02-02T08:06:41.228Z,1.00
2019-02-02T08:09:11.368Z,1.00
2019-02-02T08:11:41.310Z,1.00
2019-02-02T08:14:11.668Z,1.00
2019-02-02T08:16:43.439Z,1.10
2019-02-02T08:19:13.391Z,1.10
2019-02-02T08:21:43.853Z,1.10
2019-02-02T08:24:15.771Z,1.10
2019-02-02T08:26:46.018Z,1.10
2019-02-02T08:29:16.624Z,1.20
2019-02-02T08:31:48.634Z,1.20
2019-02-02T08:34:18.768Z,1.20
2019-02-02T08:36:48.701Z,1.20
2019-02-02T08:39:28.948Z,1.30
2019-02-02T08:41:52.443Z,1.20
2019-02-02T08:44:22.797Z,1.20
2019-02-02T08:46:53.054Z,1.20
2019-02-02T08:49:23.271Z,1.20
2019-02-02T08:51:56.703Z,1.30
2019-02-02T08:54:29.960Z,1.20
2019-02-02T08:57:00.206Z,1.20
2019-02-02T08:59:32.187Z,1.20
2019-02-02T09:02:02.244Z,1.30
2019-02-02T09:04:37.830Z,1.30
2019-02-02T09:07:09.658Z,1.30
2019-02-02T09:09:39.927Z,1.30
2019-02-02T09:12:17.654Z,1.30
2019-02-02T09:14:47.633Z,1.30
2019-02-02T09:17:58.363Z,1.30
2019-02-02T09:20:30.358Z,1.30
2019-02-02T09:23:17.138Z,1.40
2019-02-02T09:25:47.768Z,1.40
2019-02-02T09:28:18.540Z,1.40
2019-02-02T09:30:48.625Z,1.50
2019-02-02T09:33:18.836Z,1.50
2019-02-02T09:35:49.115Z,1.50
2019-02-02T09:38:27.022Z,1.60
2019-02-02T09:40:57.578Z,1.70
2019-02-02T09:43:27.812Z,1.70
2019-02-02T09:46:04.783Z,1.80
2019-02-02T09:48:36.507Z,1.80
2019-02-02T09:51:11.918Z,1.80
2019-02-02T09:53:43.039Z,1.80
2019-02-02T09:56:13.092Z,1.80
2019-02-02T09:58:43.512Z,1.80
2019-02-02T10:01:27.569Z,1.80
2019-02-02T10:03:50.394Z,1.90
2019-02-02T10:06:31.282Z,1.90
2019-02-02T10:09:05.957Z,1.90
2019-02-02T10:11:39.328Z,1.90
2019-02-02T10:14:19.434Z,2.00
2019-02-02T10:16:56.900Z,2.00
2019-02-02T10:19:32.190Z,2.00
2019-02-02T10:22:02.407Z,2.10
2019-02-02T10:24:39.537Z,2.00
2019-02-02T10:27:09.847Z,2.10
2019-02-02T10:29:43.138Z,2.10
2019-02-02T10:32:15.775Z,2.20
2019-02-02T10:34:46.148Z,2.20
2019-02-02T10:41:17.546Z,2.40
2019-02-02T10:43:48.324Z,2.40
2019-02-02T10:46:19.163Z,2.30
2019-02-02T10:48:52.678Z,2.30
2019-02-02T10:51:34.888Z,2.20
2019-02-02T10:54:18.101Z,2.20
2019-02-02T10:56:53.107Z,2.30
2019-02-02T10:59:28.337Z,2.30
2019-02-02T11:02:02.953Z,2.40
2019-02-02T11:04:39.488Z,2.50
2019-02-02T11:07:12.248Z,2.50
2019-02-02T11:09:43.127Z,2.40
2019-02-02T11:12:18.284Z,2.50
2019-02-02T11:14:50.132Z,2.50
2019-02-02T11:17:30.549Z,2.50
2019-02-02T11:20:01.932Z,2.50
2019-02-02T11:22:34.991Z,2.40
2019-02-02T11:29:27.485Z,2.30
2019-02-02T11:32:14.410Z,2.20
2019-02-02T11:35:25.479Z,2.20
2019-02-02T11:38:22.577Z,2.20
2019-02-02T11:46:01.732Z,2.40
2019-02-02T11:51:26.599Z,2.20
2019-02-02T11:53:57.528Z,2.20
2019-02-02T11:56:30.797Z,2.20
2019-02-02T11:59:17.374Z,2.20
2019-02-02T12:01:36.188Z,2.20
2019-02-02T12:04:08.562Z,2.20
2019-02-02T12:06:38.516Z,2.30
2019-02-02T12:09:09.213Z,2.30
2019-02-02T12:11:39.795Z,2.30
2019-02-02T12:14:11.085Z,2.30
2019-02-02T12:16:48.117Z,2.20
2019-02-02T12:19:22.548Z,2.20
2019-02-02T12:21:52.442Z,2.20
2019-02-02T12:24:30.975Z,2.20
2019-02-02T12:27:08.438Z,2.20
2019-02-02T12:29:44.468Z,2.20
2019-02-02T12:32:26.308Z,2.20
2019-02-02T12:34:48.252Z,2.20
2019-02-02T12:37:18.336Z,2.20
2019-02-02T12:39:48.110Z,2.20
2019-02-02T12:42:20.402Z,2.10
2019-02-02T12:44:52.698Z,2.10
2019-02-02T12:47:22.587Z,2.00
2019-02-02T12:49:52.781Z,2.00
2019-02-02T12:52:25.494Z,1.90
2019-02-02T12:54:58.743Z,2.00
2019-02-02T12:57:30.453Z,2.00
2019-02-02T13:00:01.470Z,2.00
2019-02-02T13:02:43.348Z,2.00
2019-02-02T13:05:16.020Z,2.00
2019-02-02T13:07:49.181Z,1.90
2019-02-02T13:10:24.393Z,1.90
2019-02-02T13:12:53.466Z,1.90
2019-02-02T13:15:25.196Z,1.90
2019-02-02T13:17:58.350Z,1.80
2019-02-02T13:20:28.397Z,1.90
2019-02-02T13:23:00.211Z,1.90
2019-02-02T13:25:30.102Z,1.90
2019-02-02T13:28:00.065Z,1.90
2019-02-02T13:30:34.844Z,1.90
2019-02-02T13:33:08.541Z,1.80
2019-02-02T13:35:41.498Z,1.80
2019-02-02T13:38:11.300Z,1.70
2019-02-02T13:40:41.172Z,1.70
2019-02-02T13:43:14.154Z,1.60
2019-02-02T13:45:46.827Z,1.60
2019-02-02T13:48:16.622Z,1.60
2019-02-02T13:50:53.298Z,1.50
2019-02-02T13:53:51.692Z,1.50
2019-02-02T13:56:27.831Z,1.50
2019-02-02T13:58:59.254Z,1.50
2019-02-02T14:01:29.369Z,1.60
2019-02-02T14:04:01.297Z,1.60
2019-02-02T14:06:35.287Z,1.50
2019-02-02T14:09:07.919Z,1.50
2019-02-02T14:11:40.910Z,1.40
2019-02-02T14:14:10.932Z,1.40
2019-02-02T14:16:42.052Z,1.50
2019-02-02T14:19:16.326Z,1.50
2019-02-02T14:21:59.363Z,1.50
2019-02-02T14:24:29.744Z,1.60
2019-02-02T14:27:03.738Z,1.60
2019-02-02T14:29:33.914Z,1.60
2019-02-02T14:32:09.475Z,1.60
2019-02-02T14:34:40.541Z,1.50
2019-02-02T14:37:10.655Z,1.40
2019-02-02T14:39:44.023Z,1.40
2019-02-02T14:42:18.212Z,1.40
2019-02-02T14:45:18.646Z,1.30
2019-02-02T14:47:51.791Z,1.30
2019-02-02T14:50:32.335Z,1.30
2019-02-02T14:53:03.756Z,1.30
2019-02-02T14:55:35.998Z,1.20
2019-02-02T14:58:11.658Z,1.20
2019-02-02T15:00:49.368Z,1.20
2019-02-02T15:03:25.821Z,1.10
2019-02-02T15:05:52.368Z,1.10
2019-02-02T15:08:27.115Z,1.00
2019-02-02T15:10:59.391Z,1.00
2019-02-02T15:13:30.701Z,1.00
2019-02-02T15:16:08.879Z,1.10
2019-02-02T15:18:43.766Z,1.00
2019-02-02T15:21:32.118Z,1.00
2019-02-02T15:24:05.760Z,1.10
2019-02-02T15:26:35.667Z,1.10
2019-02-02T15:29:07.390Z,1.10
2019-02-02T15:31:42.350Z,1.10
2019-02-02T15:34:12.882Z,1.10
2019-02-02T15:36:42.954Z,1.10
2019-02-02T15:39:15.669Z,1.10
2019-02-02T15:41:53.111Z,1.10
2019-02-02T15:44:22.012Z,1.10
2019-02-02T15:46:54.379Z,1.10
2019-02-02T15:49:31.488Z,1.00
2019-02-02T15:52:01.108Z,1.00
2019-02-02T15:54:40.083Z,1.00
2019-02-02T15:57:16.071Z,1.00
2019-02-02T15:59:52.808Z,1.00
2019-02-02T16:02:22.709Z,1.10
2019-02-02T16:04:54.569Z,1.00
2019-02-02T16:07:36.087Z,1.00
2019-02-02T16:10:10.335Z,1.00
2019-02-02T16:13:07.810Z,1.00
2019-02-02T16:15:56.752Z,0.90
2019-02-02T16:18:35.997Z,0.90
2019-02-02T16:21:17.760Z,0.80
2019-02-02T16:24:13.874Z,0.90
2019-02-02T16:26:48.584Z,0.80
2019-02-02T16:29:16.837Z,0.80
2019-02-02T16:31:49.392Z,0.90
2019-02-02T16:34:33.730Z,0.80
2019-02-02T16:37:08.894Z,0.90
2019-02-02T16:39:50.343Z,0.90
2019-02-02T16:42:18.687Z,0.90
2019-02-02T16:44:58.462Z,0.90
2019-02-02T16:47:29.868Z,0.90
2019-02-02T16:49:59.707Z,0.90
2019-02-02T16:52:31.640Z,1.00
2019-02-02T16:55:03.786Z,0.90
2019-02-02T16:57:44.493Z,1.00
2019-02-02T17:00:22.765Z,1.00
2019-02-02T17:02:55.756Z,1.00
2019-02-02T17:05:27.336Z,1.00
2019-02-02T17:08:03.190Z,1.00
2019-02-02T17:10:35.267Z,1.00
2019-02-02T17:13:06.094Z,1.00
2019-02-02T17:15:38.692Z,1.10
2019-02-02T17:18:08.648Z,1.00
2019-02-02T17:20:40.880Z,1.10
2019-02-02T17:23:12.899Z,1.00
2019-02-02T17:25:45.140Z,1.10
2019-02-02T17:28:15.575Z,1.10
2019-02-02T17:30:46.381Z,1.10
2019-02-02T17:33:17.280Z,1.10
2019-02-02T17:35:50.536Z,1.10
2019-02-02T17:38:20.421Z,1.00
2019-02-02T17:40:50.906Z,1.10
2019-02-02T17:43:20.790Z,1.10
2019-02-02T17:45:52.076Z,1.10
2019-02-02T17:48:29.014Z,1.10
2019-02-02T17:51:02.050Z,1.10
2019-02-02T17:53:32.079Z,1.10
2019-02-02T17:56:06.050Z,1.10
2019-02-02T17:58:39.734Z,1.00
2019-02-02T18:01:16.361Z,1.00
2019-02-02T18:03:46.461Z,1.00
2019-02-02T18:06:20.831Z,1.00
2019-02-02T18:08:58.421Z,1.00
2019-02-02T18:11:36.296Z,1.00
2019-02-02T18:14:21.805Z,0.90
2019-02-02T18:16:52.052Z,0.90
2019-02-02T18:19:23.292Z,0.90
2019-02-02T18:21:56.722Z,0.80
2019-02-02T18:24:26.539Z,0.90
2019-02-02T18:26:58.446Z,0.90
2019-02-02T18:29:29.010Z,0.90
2019-02-02T18:32:12.857Z,0.90
2019-02-02T18:34:34.731Z,0.90
2019-02-02T18:37:04.946Z,0.90
2019-02-02T18:39:35.996Z,1.00
2019-02-02T18:42:06.344Z,1.00
2019-02-02T18:44:42.430Z,1.10
2019-02-02T18:47:13.939Z,1.10
2019-02-02T18:49:46.755Z,1.10
2019-02-02T18:52:26.460Z,1.10
2019-02-02T18:55:04.025Z,1.10
2019-02-02T18:57:46.055Z,1.00
2019-02-02T19:00:23.831Z,1.10
2019-02-02T19:02:59.646Z,1.10
2019-02-02T19:05:34.293Z,1.10
2019-02-02T19:08:05.458Z,1.10
2019-02-02T19:10:40.448Z,1.10
2019-02-02T19:13:10.940Z,1.20
2019-02-02T19:15:43.567Z,1.10
2019-02-02T19:18:13.573Z,1.10
2019-02-02T19:20:52.027Z,1.10
2019-02-02T19:23:25.134Z,1.10
2019-02-02T19:25:53.926Z,1.10
2019-02-02T19:28:26.615Z,1.10
2019-02-02T19:30:59.363Z,1.10
2019-02-02T19:33:33.526Z,1.10
2019-02-02T19:36:10.304Z,1.20
2019-02-02T19:38:43.661Z,1.20
2019-02-02T19:41:21.799Z,1.10
2019-02-02T19:43:51.741Z,1.20
2019-02-02T19:46:34.335Z,1.10
2019-02-02T19:49:12.909Z,1.20
2019-02-02T19:51:48.547Z,1.10
2019-02-02T19:54:26.491Z,1.10
2019-02-02T19:57:14.412Z,1.10
2019-02-02T19:59:46.487Z,1.20
2019-02-02T20:02:18.420Z,1.20
2019-02-02T20:04:51.515Z,1.20
2019-02-02T20:07:23.591Z,1.20
2019-02-02T20:09:54.116Z,1.10
2019-02-02T20:12:24.986Z,1.20
2019-02-02T20:14:54.997Z,1.10
2019-02-02T20:17:29.874Z,1.10
2019-02-02T20:20:02.051Z,1.10
2019-02-02T20:22:55.628Z,1.10
2019-02-02T20:29:25.781Z,1.20
2019-02-02T20:32:11.355Z,1.20
2019-02-02T20:35:04.347Z,1.20
2019-02-02T20:37:56.357Z,1.20
2019-02-02T20:40:36.753Z,1.20
2019-02-02T20:44:02.354Z,1.20
2019-02-02T20:47:05.173Z,1.20
2019-02-02T20:50:18.383Z,1.20
2019-02-02T20:53:44.467Z,1.20
2019-02-02T20:56:31.795Z,1.20
2019-02-02T21:00:10.491Z,1.20
2019-02-02T21:03:19.768Z,1.20
2019-02-02T21:05:59.199Z,1.20
2019-02-02T21:08:45.069Z,1.20
2019-02-02T21:11:22.379Z,1.10
2019-02-02T21:14:02.885Z,1.10
2019-02-02T21:18:26.258Z,1.20
2019-02-02T21:19:35.954Z,1.20
2019-02-02T21:23:08.935Z,1.20
2019-02-02T21:27:55.633Z,1.20
2019-02-02T21:30:33.918Z,1.10
2019-02-02T21:33:44.183Z,1.10
2019-02-02T21:59:40.875Z,1.10
2019-02-02T22:04:26.398Z,1.10
2019-02-02T22:09:21.036Z,1.10
2019-02-02T22:12:39.741Z,1.20
2019-02-02T22:33:35.525Z,1.20
2019-02-02T22:57:44.049Z,1.20
2019-02-02T23:00:35.988Z,1.20
2019-02-02T23:03:09.412Z,1.20
2019-02-02T23:06:03.365Z,1.10
2019-02-02T23:09:11.235Z,1.10
2019-02-02T23:12:07.565Z,1.10
2019-02-02T23:15:00.760Z,1.10
2019-02-02T23:17:34.012Z,1.10
2019-02-02T23:20:05.868Z,1.10
2019-02-02T23:22:40.132Z,1.20
2019-02-02T23:25:09.836Z,1.20
2019-02-02T23:27:39.913Z,1.20
2019-02-02T23:30:12.884Z,1.20
2019-02-02T23:32:45.598Z,1.20
2019-02-02T23:35:16.185Z,1.20
2019-02-02T23:37:49.291Z,1.20
2019-02-02T23:40:19.458Z,1.10
2019-02-02T23:42:50.543Z,1.10
2019-02-02T23:45:24.133Z,1.10
2019-02-02T23:47:56.075Z,1.10
2019-02-02T23:50:28.414Z,1.20
2019-02-02T23:52:59.027Z,1.20
2019-02-02T23:55:33.992Z,1.20
2019-02-02T23:58:04.169Z,1.20
